createdAt,value
2019-01-22T00:00:04.900Z,95502.70
2019-01-22T00:01:08.991Z,95504.23
2019-01-22T00:02:12.576Z,95499.88
2019-01-22T00:03:16.261Z,95496.94
2019-01-22T00:04:19.738Z,95493.65
2019-01-22T00:05:23.349Z,95496.91
2019-01-22T00:06:26.937Z,95493.91
2019-01-22T00:07:30.436Z,95490.67
2019-01-22T00:08:33.873Z,95487.79
2019-01-22T00:09:37.413Z,95488.76
2019-01-22T00:10:42.324Z,95487.12
2019-01-22T00:11:46.014Z,95489.27
2019-01-22T00:12:49.833Z,95490.03
2019-01-22T00:13:53.336Z,95487.09
2019-01-22T00:14:56.780Z,95490.80
2019-01-22T00:16:00.351Z,95490.93
2019-01-22T00:17:03.784Z,95490.31
2019-01-22T00:18:07.305Z,95491.60
2019-01-22T00:19:10.910Z,95491.60
2019-01-22T00:20:15.677Z,95489.87
2019-01-22T00:21:19.219Z,95482.79
2019-01-22T00:22:22.735Z,95486.86
2019-01-22T00:23:26.220Z,95484.17
2019-01-22T00:24:29.715Z,95488.06
2019-01-22T00:25:33.225Z,95486.73
2019-01-22T00:26:36.868Z,95485.03
2019-01-22T00:27:40.580Z,95483.06
2019-01-22T00:28:44.195Z,95485.98
2019-01-22T00:29:47.713Z,95481.33
2019-01-22T00:30:51.146Z,95481.56
2019-01-22T00:31:55.114Z,95480.53
2019-01-22T00:32:58.602Z,95474.68
2019-01-22T00:34:02.098Z,95474.68
2019-01-22T00:35:06.275Z,95475.53
2019-01-22T00:36:09.776Z,95472.39
2019-01-22T00:37:13.274Z,95474.83
2019-01-22T00:38:16.803Z,95476.42
2019-01-22T00:39:20.303Z,95469.30
2019-01-22T00:40:23.817Z,95468.95
2019-01-22T00:41:27.312Z,95468.31
2019-01-22T00:42:30.815Z,95465.77
2019-01-22T00:43:34.553Z,95466.85
2019-01-22T00:44:38.217Z,95461.97
2019-01-22T00:45:41.716Z,95463.18
2019-01-22T00:46:45.151Z,95461.48
2019-01-22T00:47:48.590Z,95465.19
2019-01-22T00:48:52.041Z,95461.54
2019-01-22T00:49:55.486Z,95459.39
2019-01-22T00:50:58.943Z,95457.16
2019-01-22T00:52:02.386Z,95456.95
2019-01-22T00:53:09.914Z,95457.30
2019-01-22T00:54:11.081Z,95454.57
2019-01-22T00:55:18.996Z,95449.10
2019-01-22T00:56:22.491Z,95451.60
2019-01-22T00:57:25.920Z,95445.31
2019-01-22T00:58:29.352Z,95450.48
2019-01-22T00:59:33.571Z,95452.05
2019-01-22T01:00:37.479Z,95445.17
2019-01-22T01:01:40.974Z,95442.70
2019-01-22T01:02:44.554Z,95449.93
2019-01-22T01:03:48.075Z,95450.11
2019-01-22T01:04:51.588Z,95448.81
2019-01-22T01:05:55.085Z,95446.67
2019-01-22T01:06:58.739Z,95448.38
2019-01-22T01:08:02.253Z,95445.70
2019-01-22T01:09:07.862Z,95446.48
2019-01-22T01:10:13.266Z,95445.63
2019-01-22T01:11:16.770Z,95446.93
2019-01-22T01:12:20.285Z,95444.81
2019-01-22T01:13:23.946Z,95445.22
2019-01-22T01:14:27.541Z,95442.02
2019-01-22T01:15:31.224Z,95446.95
2019-01-22T01:16:35.038Z,95440.81
2019-01-22T01:17:38.560Z,95441.14
2019-01-22T01:18:42.159Z,95441.76
2019-01-22T01:19:45.750Z,95439.70
2019-01-22T01:20:49.258Z,95435.64
2019-01-22T01:21:52.697Z,95435.98
2019-01-22T01:22:56.245Z,95434.08
2019-01-22T01:23:59.828Z,95433.10
2019-01-22T01:25:03.538Z,95426.95
2019-01-22T01:26:06.976Z,95426.61
2019-01-22T01:27:10.650Z,95424.88
2019-01-22T01:28:14.091Z,95425.84
2019-01-22T01:29:17.555Z,95424.09
2019-01-22T01:30:23.223Z,95427.34
2019-01-22T01:31:27.187Z,95427.78
2019-01-22T01:32:30.698Z,95424.32
2019-01-22T01:33:34.181Z,95425.31
2019-01-22T01:34:37.719Z,95418.84
2019-01-22T01:35:41.189Z,95416.47
2019-01-22T01:36:44.731Z,95417.44
2019-01-22T01:37:48.233Z,95411.74
2019-01-22T01:38:51.700Z,95418.27
2019-01-22T01:39:55.164Z,95413.30
2019-01-22T01:40:58.598Z,95406.92
2019-01-22T01:42:02.202Z,95398.96
2019-01-22T01:43:05.786Z,95393.58
2019-01-22T01:44:09.381Z,95392.73
2019-01-22T01:45:13.059Z,95394.88
2019-01-22T01:46:16.883Z,95391.84
2019-01-22T01:47:20.405Z,95392.03
2019-01-22T01:48:23.911Z,95383.80
2019-01-22T01:49:27.389Z,95393.61
2019-01-22T01:50:30.890Z,95381.03
2019-01-22T01:51:34.400Z,95384.12
2019-01-22T01:52:37.919Z,95382.96
2019-01-22T01:53:41.529Z,95376.77
2019-01-22T01:54:45.149Z,95374.18
2019-01-22T01:55:48.745Z,95371.47
2019-01-22T01:56:52.276Z,95368.71
2019-01-22T01:57:55.805Z,95365.31
2019-01-22T01:58:59.335Z,95363.17
2019-01-22T02:00:03.007Z,95362.67
2019-01-22T02:01:06.742Z,95362.17
2019-01-22T02:02:13.168Z,95362.91
2019-01-22T02:03:16.668Z,95359.70
2019-01-22T02:04:20.132Z,95354.00
2019-01-22T02:05:25.196Z,95354.80
2019-01-22T02:06:28.717Z,95355.03
2019-01-22T02:07:32.433Z,95353.51
2019-01-22T02:08:35.842Z,95359.56
2019-01-22T02:09:39.379Z,95356.50
2019-01-22T02:10:42.957Z,95360.41
2019-01-22T02:11:46.409Z,95364.26
2019-01-22T02:12:55.692Z,95361.50
2019-01-22T02:13:59.274Z,95360.00
2019-01-22T02:15:02.961Z,95365.17
2019-01-22T02:16:21.179Z,95361.23
2019-01-22T02:17:39.592Z,95358.29
2019-01-22T02:18:48.810Z,95354.23
2019-01-22T02:19:58.201Z,95344.58
2019-01-22T02:21:22.561Z,95348.52
2019-01-22T02:22:34.922Z,95348.39
2019-01-22T02:23:43.954Z,95348.62
2019-01-22T02:24:53.088Z,95348.22
2019-01-22T02:26:19.831Z,95335.70
2019-01-22T02:27:32.340Z,95335.44
2019-01-22T02:28:54.889Z,95333.24
2019-01-22T02:30:17.365Z,95336.94
2019-01-22T02:31:23.869Z,95332.30
2019-01-22T02:32:30.382Z,95331.30
2019-01-22T02:33:36.876Z,95331.36
2019-01-22T02:34:52.098Z,95327.75
2019-01-22T02:36:01.224Z,95323.11
2019-01-22T02:37:37.513Z,95323.11
2019-01-22T02:38:55.633Z,95324.63
2019-01-22T02:40:07.649Z,95321.55
2019-01-22T02:41:16.893Z,95323.45
2019-01-22T02:42:28.986Z,95321.39
2019-01-22T02:43:53.109Z,95317.54
2019-01-22T02:45:18.506Z,95315.41
2019-01-22T02:46:54.848Z,95319.73
2019-01-22T02:48:01.327Z,95315.32
2019-01-22T02:49:25.743Z,95315.99
2019-01-22T02:50:40.689Z,95313.41
2019-01-22T02:51:52.679Z,95306.75
2019-01-22T02:52:59.204Z,95306.42
2019-01-22T02:54:06.039Z,95307.03
2019-01-22T02:55:18.026Z,95302.51
2019-01-22T02:56:27.409Z,95300.75
2019-01-22T02:57:48.647Z,95300.52
2019-01-22T02:59:01.060Z,95298.11
2019-01-22T03:00:29.857Z,95291.97
2019-01-22T03:02:07.800Z,95296.52
2019-01-22T03:03:35.118Z,95293.88
2019-01-22T03:04:41.629Z,95286.67
2019-01-22T03:06:12.245Z,95279.27
2019-01-22T03:07:33.857Z,95285.29
2019-01-22T03:08:59.850Z,95284.84
2019-01-22T03:10:15.102Z,95284.00
2019-01-22T03:11:37.980Z,95278.30
2019-01-22T03:12:44.526Z,95282.94
2019-01-22T03:14:07.122Z,95281.31
2019-01-22T03:15:41.989Z,95285.11
2019-01-22T03:16:48.518Z,95282.72
2019-01-22T03:18:15.614Z,95278.23
2019-01-22T03:19:33.771Z,95276.75
2019-01-22T03:20:49.194Z,95276.53
2019-01-22T03:21:55.923Z,95274.81
2019-01-22T03:23:08.489Z,95279.78
2019-01-22T03:24:37.256Z,95273.52
2019-01-22T03:25:46.546Z,95269.78
2019-01-22T03:27:08.186Z,95270.22
2019-01-22T03:28:23.546Z,95274.30
2019-01-22T03:29:44.959Z,95274.00
2019-01-22T03:30:51.489Z,95272.48
2019-01-22T03:32:15.640Z,95272.23
2019-01-22T03:33:22.116Z,95271.25
2019-01-22T03:34:31.205Z,95270.91
2019-01-22T03:35:46.803Z,95267.46
2019-01-22T03:37:23.161Z,95261.67
2019-01-22T03:38:44.305Z,95268.34
2019-01-22T03:39:50.804Z,95264.69
2019-01-22T03:41:22.684Z,95256.79
2019-01-22T03:42:34.996Z,95263.81
2019-01-22T03:43:57.715Z,95257.55
2019-01-22T03:45:16.072Z,95257.88
2019-01-22T03:46:22.573Z,95268.31
2019-01-22T03:47:53.098Z,95253.56
2019-01-22T03:49:08.313Z,95259.89
2019-01-22T03:50:32.942Z,95252.02
2019-01-22T03:51:39.459Z,95258.16
2019-01-22T03:52:45.959Z,95258.83
2019-01-22T03:54:20.831Z,95262.29
2019-01-22T03:55:45.315Z,95257.34
2019-01-22T03:57:09.779Z,95257.99
2019-01-22T03:58:13.292Z,95255.55
2019-01-22T03:59:16.858Z,95256.06
2019-01-22T04:00:22.318Z,95261.95
2019-01-22T04:01:25.923Z,95260.31
2019-01-22T04:02:30.514Z,95256.88
2019-01-22T04:03:34.103Z,95258.39
2019-01-22T04:04:37.535Z,95261.09
2019-01-22T04:05:40.977Z,95261.19
2019-01-22T04:06:45.030Z,95259.89
2019-01-22T04:07:48.619Z,95269.94
2019-01-22T04:08:53.612Z,95266.80
2019-01-22T04:09:58.992Z,95266.49
2019-01-22T04:11:04.282Z,95260.23
2019-01-22T04:12:07.818Z,95256.38
2019-01-22T04:13:11.440Z,95252.49
2019-01-22T04:14:14.959Z,95247.22
2019-01-22T04:15:21.519Z,95251.41
2019-01-22T04:16:25.312Z,95251.08
2019-01-22T04:17:28.953Z,95253.09
2019-01-22T04:18:32.565Z,95251.59
2019-01-22T04:19:36.142Z,95245.77
2019-01-22T04:20:39.648Z,95243.52
2019-01-22T04:21:43.228Z,95238.91
2019-01-22T04:22:48.251Z,95242.13
2019-01-22T04:24:01.454Z,95238.06
2019-01-22T04:25:05.788Z,95240.23
2019-01-22T04:26:28.695Z,95235.81
2019-01-22T04:27:37.904Z,95231.52
2019-01-22T04:29:09.685Z,95233.67
2019-01-22T04:30:27.847Z,95229.47
2019-01-22T04:31:37.012Z,95234.55
2019-01-22T04:32:43.548Z,95224.63
2019-01-22T04:34:12.149Z,95227.01
2019-01-22T04:35:39.682Z,95227.01
2019-01-22T04:36:58.195Z,95222.13
2019-01-22T04:38:04.709Z,95222.80
2019-01-22T04:39:16.815Z,95223.85
2019-01-22T04:40:23.312Z,95226.00
2019-01-22T04:41:48.806Z,95218.58
2019-01-22T04:43:20.704Z,95218.48
2019-01-22T04:44:47.480Z,95211.69
2019-01-22T04:45:53.972Z,95203.50
2019-01-22T04:47:12.544Z,95211.92
2019-01-22T04:48:27.230Z,95210.16
2019-01-22T04:49:33.801Z,95205.94
2019-01-22T04:50:46.125Z,95207.36
2019-01-22T04:51:55.594Z,95204.35
2019-01-22T04:53:20.166Z,95201.33
2019-01-22T04:54:32.466Z,95204.02
2019-01-22T04:56:10.590Z,95205.64
2019-01-22T04:57:25.835Z,95204.65
2019-01-22T04:58:38.182Z,95200.58
2019-01-22T04:59:44.689Z,95198.13
2019-01-22T05:01:02.920Z,95196.06
2019-01-22T05:02:18.119Z,95195.38
2019-01-22T05:03:27.534Z,95190.74
2019-01-22T05:04:36.725Z,95188.92
2019-01-22T05:05:48.660Z,95185.05
2019-01-22T05:07:15.650Z,95183.84
2019-01-22T05:08:40.460Z,95187.92
2019-01-22T05:10:03.156Z,95181.46
2019-01-22T05:11:15.090Z,95179.27
2019-01-22T05:12:33.674Z,95183.84
2019-01-22T05:13:48.844Z,95177.16
2019-01-22T05:15:17.311Z,95170.39
2019-01-22T05:16:29.196Z,95169.10
2019-01-22T05:17:41.471Z,95172.25
2019-01-22T05:18:59.652Z,95161.39
2019-01-22T05:20:06.138Z,95165.08
2019-01-22T05:21:36.468Z,95164.45
2019-01-22T05:22:45.710Z,95165.84
2019-01-22T05:24:00.787Z,95169.19
2019-01-22T05:25:10.048Z,95164.30
2019-01-22T05:26:19.260Z,95157.64
2019-01-22T05:27:34.310Z,95158.84
2019-01-22T05:28:52.659Z,95154.50
2019-01-22T05:30:13.108Z,95165.50
2019-01-22T05:31:40.219Z,95156.88
2019-01-22T05:32:52.415Z,95161.09
2019-01-22T05:33:58.914Z,95156.22
2019-01-22T05:35:17.112Z,95161.20
2019-01-22T05:36:38.503Z,95157.31
2019-01-22T05:37:59.548Z,95157.42
2019-01-22T05:39:14.328Z,95161.73
2019-01-22T05:40:37.196Z,95162.07
2019-01-22T05:42:01.617Z,95162.64
2019-01-22T05:43:13.362Z,95152.06
2019-01-22T05:44:34.611Z,95156.17
2019-01-22T05:46:00.365Z,95161.67
2019-01-22T05:47:12.539Z,95153.92
2019-01-22T05:48:19.006Z,95151.77
2019-01-22T05:49:40.114Z,95151.97
2019-01-22T05:50:49.465Z,95147.89
2019-01-22T05:52:07.746Z,95147.02
2019-01-22T05:53:25.878Z,95153.06
2019-01-22T05:54:32.403Z,95156.94
2019-01-22T05:55:53.605Z,95157.89
2019-01-22T05:57:00.087Z,95155.16
2019-01-22T05:58:37.777Z,95154.96
2019-01-22T05:59:59.032Z,95155.59
2019-01-22T06:01:05.650Z,95160.56
2019-01-22T06:02:12.165Z,95158.95
2019-01-22T06:03:27.743Z,95162.06
2019-01-22T06:04:49.033Z,95162.25
2019-01-22T06:05:59.837Z,95159.91
2019-01-22T06:07:09.181Z,95160.86
2019-01-22T06:08:33.555Z,95156.13
2019-01-22T06:09:48.880Z,95155.78
2019-01-22T06:10:55.378Z,95156.78
2019-01-22T06:12:16.779Z,95154.06
2019-01-22T06:13:28.972Z,95159.47
2019-01-22T06:14:41.272Z,95152.48
2019-01-22T06:15:47.822Z,95154.50
2019-01-22T06:17:13.471Z,95148.37
2019-01-22T06:18:20.046Z,95156.31
2019-01-22T06:19:35.252Z,95154.29
2019-01-22T06:20:59.527Z,95161.61
2019-01-22T06:22:22.324Z,95153.63
2019-01-22T06:23:46.570Z,95155.24
2019-01-22T06:24:55.899Z,95159.42
2019-01-22T06:26:11.054Z,95156.00
2019-01-22T06:27:20.126Z,95153.20
2019-01-22T06:28:35.143Z,95156.22
2019-01-22T06:30:00.905Z,95152.04
2019-01-22T06:31:22.629Z,95150.75
2019-01-22T06:32:31.938Z,95145.25
2019-01-22T06:33:38.434Z,95146.75
2019-01-22T06:34:44.914Z,95151.48
2019-01-22T06:36:09.382Z,95151.05
2019-01-22T06:37:15.879Z,95151.91
2019-01-22T06:38:22.373Z,95143.95
2019-01-22T06:39:31.865Z,95147.94
2019-01-22T06:40:54.546Z,95140.08
2019-01-22T06:42:25.258Z,95143.52
2019-01-22T06:43:31.813Z,95141.70
2019-01-22T06:44:44.126Z,95137.83
2019-01-22T06:45:50.660Z,95140.84
2019-01-22T06:47:12.049Z,95130.37
2019-01-22T06:48:39.182Z,95133.95
2019-01-22T06:50:00.336Z,95130.37
2019-01-22T06:51:21.049Z,95126.71
2019-01-22T06:52:42.297Z,95131.88
2019-01-22T06:53:57.081Z,95128.97
2019-01-22T06:55:09.368Z,95130.92
2019-01-22T06:56:39.841Z,95133.81
2019-01-22T06:58:13.028Z,95124.14
2019-01-22T06:59:22.357Z,95126.40
2019-01-22T07:00:31.587Z,95125.33
2019-01-22T07:01:46.532Z,95129.41
2019-01-22T07:02:55.929Z,95130.41
2019-01-22T07:04:02.582Z,95133.09
2019-01-22T07:05:11.615Z,95129.75
2019-01-22T07:06:34.801Z,95134.72
2019-01-22T07:07:52.770Z,95130.59
2019-01-22T07:09:21.555Z,95133.70
2019-01-22T07:10:33.312Z,95128.88
2019-01-22T07:11:42.298Z,95121.75
2019-01-22T07:12:48.831Z,95125.63
2019-01-22T07:14:00.982Z,95117.77
2019-01-22T07:15:19.202Z,95127.36
2019-01-22T07:16:28.239Z,95122.75
2019-01-22T07:17:37.516Z,95120.36
2019-01-22T07:18:55.965Z,95121.12
2019-01-22T07:20:14.208Z,95125.76
2019-01-22T07:21:32.559Z,95124.56
2019-01-22T07:22:39.066Z,95124.56
2019-01-22T07:23:45.638Z,95126.29
2019-01-22T07:24:54.570Z,95123.28
2019-01-22T07:26:09.864Z,95119.07
2019-01-22T07:27:19.196Z,95122.09
2019-01-22T07:28:25.769Z,95120.16
2019-01-22T07:29:44.169Z,95119.30
2019-01-22T07:31:06.057Z,95116.91
2019-01-22T07:32:27.794Z,95118.11
2019-01-22T07:33:52.020Z,95114.56
2019-01-22T07:35:15.827Z,95117.48
2019-01-22T07:36:47.723Z,95115.53
2019-01-22T07:37:54.224Z,95113.17
2019-01-22T07:39:09.077Z,95114.13
2019-01-22T07:40:36.283Z,95115.13
2019-01-22T07:41:57.460Z,95112.97
2019-01-22T07:43:21.600Z,95112.11
2019-01-22T07:44:33.979Z,95112.74
2019-01-22T07:45:59.852Z,95109.09
2019-01-22T07:47:25.642Z,95102.63
2019-01-22T07:48:32.338Z,95103.92
2019-01-22T07:49:41.845Z,95106.41
2019-01-22T07:50:50.935Z,95104.35
2019-01-22T07:52:06.167Z,95107.27
2019-01-22T07:53:30.206Z,95102.53
2019-01-22T07:55:03.554Z,95102.95
2019-01-22T07:56:21.735Z,95104.98
2019-01-22T07:57:39.873Z,95097.66
2019-01-22T07:59:10.188Z,95098.19
2019-01-22T08:00:19.397Z,95094.41
2019-01-22T08:01:43.914Z,95093.22
2019-01-22T08:02:59.284Z,95090.44
2019-01-22T08:04:13.087Z,95092.78
2019-01-22T08:05:30.007Z,95093.12
2019-01-22T08:07:01.760Z,95086.88
2019-01-22T08:08:27.846Z,95087.95
2019-01-22T08:09:51.973Z,95089.14
2019-01-22T08:11:01.270Z,95089.04
2019-01-22T08:12:26.523Z,95086.88
2019-01-22T08:13:33.014Z,95084.50
2019-01-22T08:14:45.394Z,95084.50
2019-01-22T08:16:00.696Z,95093.55
2019-01-22T08:17:18.926Z,95090.00
2019-01-22T08:18:30.652Z,95089.47
2019-01-22T08:19:57.869Z,95087.95
2019-01-22T08:21:06.860Z,95081.28
2019-01-22T08:22:24.964Z,95081.72
2019-01-22T08:23:55.078Z,95086.55
2019-01-22T08:25:13.581Z,95080.52
2019-01-22T08:26:37.917Z,95071.91
2019-01-22T08:28:09.337Z,95076.75
2019-01-22T08:29:21.140Z,95081.28
2019-01-22T08:30:45.309Z,95075.98
2019-01-22T08:32:10.817Z,95084.27
2019-01-22T08:33:17.309Z,95084.03
2019-01-22T08:34:54.930Z,95075.31
2019-01-22T08:36:09.778Z,95075.31
2019-01-22T08:37:37.108Z,95072.20
2019-01-22T08:38:43.606Z,95075.22
2019-01-22T08:40:01.604Z,95067.02
2019-01-22T08:41:26.131Z,95074.88
2019-01-22T08:42:35.539Z,95075.94
2019-01-22T08:44:08.832Z,95066.93
2019-01-22T08:45:27.338Z,95076.94
2019-01-22T08:46:36.612Z,95074.16
2019-01-22T08:48:00.816Z,95068.89
2019-01-22T08:49:10.164Z,95070.67
2019-01-22T08:50:16.640Z,95069.37
2019-01-22T08:51:42.177Z,95070.77
2019-01-22T08:52:57.424Z,95065.40
2019-01-22T08:54:32.071Z,95061.86
2019-01-22T08:55:38.560Z,95064.68
2019-01-22T08:57:01.153Z,95067.27
2019-01-22T08:58:18.790Z,95062.75
2019-01-22T08:59:25.309Z,95060.27
2019-01-22T09:00:37.224Z,95062.73
2019-01-22T09:01:51.626Z,95059.94
2019-01-22T09:03:17.266Z,95057.13
2019-01-22T09:04:32.641Z,95059.41
2019-01-22T09:05:39.133Z,95055.20
2019-01-22T09:07:12.496Z,95052.41
2019-01-22T09:08:18.979Z,95056.81
2019-01-22T09:09:28.226Z,95052.63
2019-01-22T09:11:01.879Z,95049.17
2019-01-22T09:12:14.423Z,95051.86
2019-01-22T09:13:29.562Z,95051.66
2019-01-22T09:14:38.994Z,95054.02
2019-01-22T09:16:01.786Z,95049.41
2019-01-22T09:17:24.854Z,95048.75
2019-01-22T09:18:40.752Z,95046.92
2019-01-22T09:19:53.107Z,95047.45
2019-01-22T09:21:05.561Z,95042.94
2019-01-22T09:22:34.357Z,95048.74
2019-01-22T09:23:46.627Z,95033.98
2019-01-22T09:24:59.002Z,95038.83
2019-01-22T09:26:17.082Z,95043.34
2019-01-22T09:27:29.323Z,95042.49
2019-01-22T09:28:44.655Z,95040.56
2019-01-22T09:30:20.795Z,95039.70
2019-01-22T09:31:27.277Z,95041.84
2019-01-22T09:32:48.353Z,95040.55
2019-01-22T09:33:54.868Z,95041.42
2019-01-22T09:35:17.346Z,95033.55
2019-01-22T09:36:47.363Z,95039.60
2019-01-22T09:37:50.939Z,95036.58
2019-01-22T09:38:54.468Z,95037.11
2019-01-22T09:39:57.971Z,95042.92
2019-01-22T09:41:01.544Z,95039.27
2019-01-22T09:42:05.119Z,95037.75
2019-01-22T09:43:08.713Z,95033.67
2019-01-22T09:44:12.179Z,95034.41
2019-01-22T09:45:15.760Z,95035.39
2019-01-22T09:46:19.221Z,95030.66
2019-01-22T09:47:22.658Z,95029.36
2019-01-22T09:48:26.169Z,95028.16
2019-01-22T09:49:29.711Z,95031.71
2019-01-22T09:50:34.236Z,95030.98
2019-01-22T09:51:37.813Z,95026.44
2019-01-22T09:52:41.257Z,95027.20
2019-01-22T09:53:44.687Z,95021.80
2019-01-22T09:54:48.213Z,95025.91
2019-01-22T09:55:51.675Z,95022.23
2019-01-22T09:56:55.191Z,95025.91
2019-01-22T09:57:58.634Z,95023.95
2019-01-22T09:59:02.197Z,95018.67
2019-01-22T10:00:08.730Z,95017.61
2019-01-22T10:01:12.246Z,95014.27
2019-01-22T10:02:15.755Z,95014.92
2019-01-22T10:03:19.340Z,95013.48
2019-01-22T10:04:22.819Z,95015.11
2019-01-22T10:05:26.321Z,95010.59
2019-01-22T10:06:29.890Z,95014.80
2019-01-22T10:07:33.414Z,95009.93
2019-01-22T10:08:36.945Z,95011.89
2019-01-22T10:09:40.421Z,95005.44
2019-01-22T10:10:43.956Z,95006.50
2019-01-22T10:11:47.523Z,95006.72
2019-01-22T10:12:51.100Z,95008.34
2019-01-22T10:13:54.824Z,95008.77
2019-01-22T10:14:58.388Z,95008.86
2019-01-22T10:16:02.013Z,95001.98
2019-01-22T10:17:05.517Z,95002.61
2019-01-22T10:18:09.120Z,95001.31
2019-01-22T10:19:12.644Z,94992.49
2019-01-22T10:20:23.699Z,94991.40
2019-01-22T10:21:27.277Z,94987.09
2019-01-22T10:22:30.778Z,94987.95
2019-01-22T10:23:34.359Z,94986.58
2019-01-22T10:24:37.906Z,94983.34
2019-01-22T10:25:41.410Z,94987.67
2019-01-22T10:26:44.921Z,94983.66
2019-01-22T10:27:48.583Z,94983.02
2019-01-22T10:28:52.214Z,94977.85
2019-01-22T10:29:55.745Z,94977.02
2019-01-22T10:30:59.239Z,94971.16
2019-01-22T10:32:02.716Z,94970.08
2019-01-22T10:33:06.300Z,94971.37
2019-01-22T10:34:09.854Z,94968.47
2019-01-22T10:35:14.255Z,94964.28
2019-01-22T10:36:17.932Z,94963.62
2019-01-22T10:37:21.426Z,94956.71
2019-01-22T10:38:24.824Z,94954.67
2019-01-22T10:39:28.279Z,94958.88
2019-01-22T10:40:31.797Z,94951.34
2019-01-22T10:41:35.313Z,94945.32
2019-01-22T10:42:38.745Z,94950.30
2019-01-22T10:43:42.164Z,94945.11
2019-01-22T10:44:45.615Z,94936.58
2019-01-22T10:45:49.080Z,94940.55
2019-01-22T10:46:52.614Z,94937.50
2019-01-22T10:47:56.116Z,94933.20
2019-01-22T10:48:59.744Z,94931.48
2019-01-22T10:50:04.474Z,94930.42
2019-01-22T10:51:07.905Z,94924.04
2019-01-22T10:52:11.339Z,94926.94
2019-01-22T10:53:14.781Z,94922.64
2019-01-22T10:54:18.295Z,94924.35
2019-01-22T10:55:21.902Z,94917.66
2019-01-22T10:56:25.371Z,94922.58
2019-01-22T10:57:28.882Z,94914.29
2019-01-22T10:58:32.468Z,94915.92
2019-01-22T10:59:35.934Z,94912.27
2019-01-22T11:00:39.732Z,94915.08
2019-01-22T11:01:43.240Z,94906.64
2019-01-22T11:02:46.674Z,94905.22
2019-01-22T11:03:50.261Z,94908.12
2019-01-22T11:04:53.869Z,94901.97
2019-01-22T11:05:57.402Z,94902.81
2019-01-22T11:07:00.850Z,94895.98
2019-01-22T11:08:04.606Z,94898.23
2019-01-22T11:09:08.495Z,94898.88
2019-01-22T11:10:12.074Z,94899.50
2019-01-22T11:11:15.599Z,94896.80
2019-01-22T11:12:19.072Z,94890.86
2019-01-22T11:13:22.520Z,94895.08
2019-01-22T11:14:26.018Z,94886.87
2019-01-22T11:15:29.540Z,94888.47
2019-01-22T11:16:33.066Z,94889.84
2019-01-22T11:17:36.502Z,94887.59
2019-01-22T11:18:40.625Z,94883.52
2019-01-22T11:19:44.072Z,94889.79
2019-01-22T11:20:47.583Z,94878.56
2019-01-22T11:21:51.044Z,94882.11
2019-01-22T11:22:54.638Z,94881.46
2019-01-22T11:23:58.330Z,94880.05
2019-01-22T11:25:01.861Z,94876.90
2019-01-22T11:26:05.428Z,94872.17
2019-01-22T11:27:08.926Z,94869.24
2019-01-22T11:28:12.515Z,94873.01
2019-01-22T11:29:15.960Z,94867.50
2019-01-22T11:30:22.433Z,94865.20
2019-01-22T11:31:25.939Z,94862.23
2019-01-22T11:32:29.383Z,94860.52
2019-01-22T11:33:33.546Z,94858.53
2019-01-22T11:34:37.097Z,94852.70
2019-01-22T11:35:40.598Z,94854.19
2019-01-22T11:36:44.186Z,94850.99
2019-01-22T11:37:47.701Z,94851.64
2019-01-22T11:38:51.391Z,94847.39
2019-01-22T11:39:54.825Z,94841.37
2019-01-22T11:40:58.347Z,94847.55
2019-01-22T11:42:01.874Z,94843.73
2019-01-22T11:43:05.546Z,94845.75
2019-01-22T11:44:09.048Z,94837.41
2019-01-22T11:45:12.723Z,94840.68
2019-01-22T11:46:16.307Z,94836.11
2019-01-22T11:47:19.829Z,94832.64
2019-01-22T11:48:23.263Z,94836.29
2019-01-22T11:49:26.772Z,94830.45
2019-01-22T11:50:30.223Z,94828.30
2019-01-22T11:51:33.646Z,94827.16
2019-01-22T11:52:37.167Z,94822.92
2019-01-22T11:53:40.752Z,94823.56
2019-01-22T11:54:44.196Z,94822.53
2019-01-22T11:55:50.565Z,94818.11
2019-01-22T11:56:52.903Z,94812.28
2019-01-22T11:57:56.496Z,94813.03
2019-01-22T11:59:00.073Z,94812.69
2019-01-22T12:00:05.528Z,94809.69
2019-01-22T12:01:09.122Z,94811.11
2019-01-22T12:02:12.712Z,94808.86
2019-01-22T12:03:16.294Z,94811.74
2019-01-22T12:04:19.861Z,94804.58
2019-01-22T12:05:23.310Z,94808.56
2019-01-22T12:06:26.780Z,94802.63
2019-01-22T12:07:30.248Z,94804.27
2019-01-22T12:08:33.719Z,94793.46
2019-01-22T12:09:37.155Z,94789.14
2019-01-22T12:10:40.660Z,94788.98
2019-01-22T12:11:44.097Z,94785.98
2019-01-22T12:12:47.600Z,94783.98
2019-01-22T12:13:54.058Z,94785.69
2019-01-22T12:14:56.301Z,94775.89
2019-01-22T12:15:59.816Z,94774.89
2019-01-22T12:17:03.254Z,94772.72
2019-01-22T12:18:06.844Z,94775.50
2019-01-22T12:19:10.383Z,94768.96
2019-01-22T12:20:19.568Z,94767.42
2019-01-22T12:21:23.080Z,94766.95
2019-01-22T12:22:26.579Z,94768.88
2019-01-22T12:23:30.102Z,94764.10
2019-01-22T12:24:33.607Z,94765.81
2019-01-22T12:25:37.025Z,94758.45
2019-01-22T12:26:40.485Z,94756.08
2019-01-22T12:27:43.996Z,94751.30
2019-01-22T12:28:47.495Z,94753.01
2019-01-22T12:29:50.951Z,94750.48
2019-01-22T12:30:54.657Z,94747.83
2019-01-22T12:31:58.170Z,94744.13
2019-01-22T12:33:01.672Z,94744.22
2019-01-22T12:34:05.261Z,94740.39
2019-01-22T12:35:11.333Z,94737.73
2019-01-22T12:36:14.847Z,94734.78
2019-01-22T12:37:18.368Z,94729.28
2019-01-22T12:38:21.793Z,94726.87
2019-01-22T12:39:25.256Z,94721.02
2019-01-22T12:40:29.143Z,94722.67
2019-01-22T12:41:32.582Z,94722.91
2019-01-22T12:42:36.084Z,94719.90
2019-01-22T12:43:39.595Z,94713.84
2019-01-22T12:44:43.108Z,94715.00
2019-01-22T12:45:46.601Z,94712.32
2019-01-22T12:46:50.071Z,94707.88
2019-01-22T12:47:53.601Z,94704.88
2019-01-22T12:48:57.045Z,94702.09
2019-01-22T12:50:00.496Z,94696.66
2019-01-22T12:51:04.071Z,94700.47
2019-01-22T12:52:07.579Z,94697.81
2019-01-22T12:53:11.192Z,94698.44
2019-01-22T12:54:14.701Z,94691.00
2019-01-22T12:55:18.407Z,94690.27
2019-01-22T12:56:21.839Z,94690.46
2019-01-22T12:57:25.279Z,94690.13
2019-01-22T12:58:28.716Z,94683.77
2019-01-22T12:59:32.246Z,94683.69
2019-01-22T13:00:37.788Z,94680.16
2019-01-22T13:01:41.214Z,94681.80
2019-01-22T13:02:44.723Z,94679.88
2019-01-22T13:03:48.184Z,94685.61
2019-01-22T13:04:51.682Z,94675.59
2019-01-22T13:05:56.162Z,94673.13
2019-01-22T13:06:59.730Z,94676.13
2019-01-22T13:08:03.311Z,94672.11
2019-01-22T13:09:08.002Z,94670.62
2019-01-22T13:10:11.571Z,94665.35
2019-01-22T13:11:15.072Z,94659.77
2019-01-22T13:12:18.510Z,94666.70
2019-01-22T13:13:22.009Z,94660.97
2019-01-22T13:14:25.466Z,94660.79
2019-01-22T13:15:28.981Z,94660.20
2019-01-22T13:16:32.526Z,94655.80
2019-01-22T13:17:36.041Z,94654.17
2019-01-22T13:18:39.538Z,94654.35
2019-01-22T13:19:42.999Z,94649.76
2019-01-22T13:20:46.653Z,94647.09
2019-01-22T13:21:50.084Z,94642.87
2019-01-22T13:22:53.513Z,94641.09
2019-01-22T13:23:57.018Z,94648.03
2019-01-22T13:25:00.474Z,94645.93
2019-01-22T13:26:04.055Z,94645.11
2019-01-22T13:27:07.487Z,94636.47
2019-01-22T13:28:11.088Z,94641.88
2019-01-22T13:29:14.611Z,94634.59
2019-01-22T13:30:24.858Z,94632.98
2019-01-22T13:31:28.335Z,94631.85
2019-01-22T13:32:31.837Z,94627.13
2019-01-22T13:33:35.341Z,94629.56
2019-01-22T13:34:38.792Z,94626.47
2019-01-22T13:35:42.363Z,94625.39
2019-01-22T13:36:45.798Z,94615.29
2019-01-22T13:37:49.486Z,94611.36
2019-01-22T13:38:52.923Z,94614.98
2019-01-22T13:39:56.396Z,94612.89